sensor_id;sensor_type;location;lat;lon;timestamp;pressure;altitude;pressure_sealevel;temperature;humidity
7333;BME280;3707;43.618;25.342;2023-12-29T00:00:14;100725.09;;;6.17;100.00
7333;BME280;3707;43.618;25.342;2023-12-29T00:02:41;100704.59;;;5.99;100.00
7333;BME280;3707;43.618;25.342;2023-12-29T00:05:09;100638.81;;;5.66;100.00
7333;BME280;3707;43.618;25.342;2023-12-29T00:07:36;100727.31;;;6.08;100.00
7333;BME280;3707;43.618;25.342;2023-12-29T00:10:03;100724.97;;;6.14;100.00
7333;BME280;3707;43.618;25.342;2023-12-29T00:12:30;100715.38;;;6.10;100.00
7333;BME280;3707;43.618;25.342;2023-12-29T00:14:57;100725.88;;;6.15;100.00
7333;BME280;3707;43.618;25.342;2023-12-29T00:17:23;100710.28;;;6.31;100.00
7333;BME280;3707;43.618;25.342;2023-12-29T00:19:50;100713.53;;;6.47;100.00
7333;BME280;3707;43.618;25.342;2023-12-29T00:22:20;100713.53;;;6.68;100.00
7333;BME280;3707;43.618;25.342;2023-12-29T00:24:47;100719.75;;;6.73;100.00
7333;BME280;3707;43.618;25.342;2023-12-29T00:27:14;100721.38;;;6.71;100.00
7333;BME280;3707;43.618;25.342;2023-12-29T00:29:43;100728.22;;;6.71;100.00
7333;BME280;3707;43.618;25.342;2023-12-29T00:32:10;100744.00;;;6.58;100.00
7333;BME280;3707;43.618;25.342;2023-12-29T00:34:37;100736.63;;;6.46;100.00
7333;BME280;3707;43.618;25.342;2023-12-29T00:37:04;100727.41;;;6.30;100.00
7333;BME280;3707;43.618;25.342;2023-12-29T00:39:35;100750.22;;;6.42;100.00
7333;BME280;3707;43.618;25.342;2023-12-29T00:42:04;100730.81;;;6.10;100.00
7333;BME280;3707;43.618;25.342;2023-12-29T00:44:31;100761.22;;;6.19;100.00
7333;BME280;3707;43.618;25.342;2023-12-29T00:46:58;100764.81;;;6.03;100.00
7333;BME280;3707;43.618;25.342;2023-12-29T00:49:25;100714.63;;;5.55;100.00
7333;BME280;3707;43.618;25.342;2023-12-29T00:51:52;100767.97;;;5.78;100.00
7333;BME280;3707;43.618;25.342;2023-12-29T00:54:19;100771.56;;;5.63;100.00
7333;BME280;3707;43.618;25.342;2023-12-29T00:56:49;100752.31;;;5.55;100.00
7333;BME280;3707;43.618;25.342;2023-12-29T00:59:18;100760.84;;;5.54;100.00
7333;BME280;3707;43.618;25.342;2023-12-29T01:01:45;100744.38;;;5.31;100.00
7333;BME280;3707;43.618;25.342;2023-12-29T01:04:12;100751.47;;;5.36;100.00
7333;BME280;3707;43.618;25.342;2023-12-29T01:06:39;100753.41;;;5.23;100.00
7333;BME280;3707;43.618;25.342;2023-12-29T01:09:06;100759.06;;;5.16;100.00
7333;BME280;3707;43.618;25.342;2023-12-29T01:11:34;100719.06;;;4.85;100.00
7333;BME280;3707;43.618;25.342;2023-12-29T01:14:02;100740.44;;;5.02;100.00
7333;BME280;3707;43.618;25.342;2023-12-29T01:16:29;100735.66;;;4.92;100.00
7333;BME280;3707;43.618;25.342;2023-12-29T01:18:56;100659.09;;;4.49;100.00
7333;BME280;3707;43.618;25.342;2023-12-29T01:21:22;100709.28;;;4.78;100.00
7333;BME280;3707;43.618;25.342;2023-12-29T01:23:49;100737.03;;;5.03;100.00
7333;BME280;3707;43.618;25.342;2023-12-29T01:26:16;100697.28;;;4.95;100.00
7333;BME280;3707;43.618;25.342;2023-12-29T01:28:43;100702.78;;;5.03;100.00
7333;BME280;3707;43.618;25.342;2023-12-29T01:31:11;100682.03;;;5.17;100.00
7333;BME280;3707;43.618;25.342;2023-12-29T01:33:38;100702.91;;;5.62;100.00
7333;BME280;3707;43.618;25.342;2023-12-29T01:36:06;100707.41;;;5.85;100.00
7333;BME280;3707;43.618;25.342;2023-12-29T01:38:32;100701.56;;;6.08;100.00
7333;BME280;3707;43.618;25.342;2023-12-29T01:40:59;100690.78;;;6.17;100.00
7333;BME280;3707;43.618;25.342;2023-12-29T01:43:26;100680.09;;;6.28;100.00
7333;BME280;3707;43.618;25.342;2023-12-29T01:45:53;100671.97;;;6.38;100.00
7333;BME280;3707;43.618;25.342;2023-12-29T01:48:22;100667.91;;;6.66;100.00
7333;BME280;3707;43.618;25.342;2023-12-29T01:50:50;100672.13;;;6.86;100.00
7333;BME280;3707;43.618;25.342;2023-12-29T01:53:17;100665.59;;;7.16;100.00
7333;BME280;3707;43.618;25.342;2023-12-29T01:55:45;100669.97;;;7.41;100.00
7333;BME280;3707;43.618;25.342;2023-12-29T01:58:12;100676.66;;;7.36;100.00
7333;BME280;3707;43.618;25.342;2023-12-29T02:00:39;100684.34;;;7.34;100.00
7333;BME280;3707;43.618;25.342;2023-12-29T02:03:06;100694.03;;;6.75;100.00
7333;BME280;3707;43.618;25.342;2023-12-29T02:05:35;100700.44;;;6.22;100.00
7333;BME280;3707;43.618;25.342;2023-12-29T02:08:02;100681.41;;;5.98;100.00
7333;BME280;3707;43.618;25.342;2023-12-29T02:10:30;100701.03;;;5.96;100.00
7333;BME280;3707;43.618;25.342;2023-12-29T02:12:57;100691.53;;;5.76;100.00
7333;BME280;3707;43.618;25.342;2023-12-29T02:15:25;100695.19;;;5.62;100.00
7333;BME280;3707;43.618;25.342;2023-12-29T02:17:59;100692.22;;;5.53;100.00
7333;BME280;3707;43.618;25.342;2023-12-29T02:20:27;100668.94;;;5.30;100.00
7333;BME280;3707;43.618;25.342;2023-12-29T02:22:55;100686.94;;;5.30;100.00
7333;BME280;3707;43.618;25.342;2023-12-29T02:25:24;100694.00;;;5.17;100.00
7333;BME280;3707;43.618;25.342;2023-12-29T02:27:55;100689.22;;;5.07;100.00
7333;BME280;3707;43.618;25.342;2023-12-29T02:30:27;100693.81;;;4.94;100.00
7333;BME280;3707;43.618;25.342;2023-12-29T02:33:01;100675.09;;;4.62;100.00
7333;BME280;3707;43.618;25.342;2023-12-29T02:35:34;100681.66;;;4.55;100.00
7333;BME280;3707;43.618;25.342;2023-12-29T02:38:02;100645.16;;;4.27;100.00
7333;BME280;3707;43.618;25.342;2023-12-29T02:40:30;100680.16;;;4.42;100.00
7333;BME280;3707;43.618;25.342;2023-12-29T02:42:57;100654.25;;;4.20;100.00
7333;BME280;3707;43.618;25.342;2023-12-29T02:45:24;100673.97;;;4.21;100.00
7333;BME280;3707;43.618;25.342;2023-12-29T02:47:51;100681.16;;;4.28;100.00
7333;BME280;3707;43.618;25.342;2023-12-29T02:50:18;100672.88;;;4.16;100.00
7333;BME280;3707;43.618;25.342;2023-12-29T02:52:44;100640.81;;;4.08;100.00
7333;BME280;3707;43.618;25.342;2023-12-29T02:55:11;100645.59;;;4.18;100.00
7333;BME280;3707;43.618;25.342;2023-12-29T02:57:39;100658.38;;;4.34;100.00
7333;BME280;3707;43.618;25.342;2023-12-29T03:00:07;100652.38;;;4.34;100.00
7333;BME280;3707;43.618;25.342;2023-12-29T03:02:34;100644.56;;;4.32;100.00
7333;BME280;3707;43.618;25.342;2023-12-29T03:05:01;100579.09;;;4.05;100.00
7333;BME280;3707;43.618;25.342;2023-12-29T03:07:28;100641.13;;;4.32;100.00
7333;BME280;3707;43.618;25.342;2023-12-29T03:09:55;100617.81;;;4.27;100.00
7333;BME280;3707;43.618;25.342;2023-12-29T03:12:22;100642.47;;;4.41;100.00
7333;BME280;3707;43.618;25.342;2023-12-29T03:14:50;100649.66;;;4.48;100.00
7333;BME280;3707;43.618;25.342;2023-12-29T03:17:16;100649.34;;;4.42;100.00
7333;BME280;3707;43.618;25.342;2023-12-29T03:19:43;100641.81;;;4.45;100.00
7333;BME280;3707;43.618;25.342;2023-12-29T03:22:10;100629.53;;;4.40;100.00
7333;BME280;3707;43.618;25.342;2023-12-29T03:24:37;100586.56;;;4.18;100.00
7333;BME280;3707;43.618;25.342;2023-12-29T03:27:04;100622.66;;;4.39;100.00
7333;BME280;3707;43.618;25.342;2023-12-29T03:29:31;100623.00;;;4.29;100.00
7333;BME280;3707;43.618;25.342;2023-12-29T03:31:59;100620.25;;;4.24;100.00
7333;BME280;3707;43.618;25.342;2023-12-29T03:34:26;100617.22;;;4.33;100.00
7333;BME280;3707;43.618;25.342;2023-12-29T03:36:52;100614.16;;;4.40;100.00
7333;BME280;3707;43.618;25.342;2023-12-29T03:39:19;100614.44;;;4.46;100.00
7333;BME280;3707;43.618;25.342;2023-12-29T03:41:46;100606.28;;;4.55;100.00
7333;BME280;3707;43.618;25.342;2023-12-29T03:44:13;100610.91;;;4.62;100.00
7333;BME280;3707;43.618;25.342;2023-12-29T03:46:40;100605.13;;;4.66;100.00
7333;BME280;3707;43.618;25.342;2023-12-29T03:49:08;100608.25;;;4.78;100.00
7333;BME280;3707;43.618;25.342;2023-12-29T03:51:35;100605.34;;;4.70;100.00
7333;BME280;3707;43.618;25.342;2023-12-29T03:54:02;100600.06;;;4.67;100.00
7333;BME280;3707;43.618;25.342;2023-12-29T03:56:29;100613.69;;;4.84;100.00
7333;BME280;3707;43.618;25.342;2023-12-29T03:58:56;100610.72;;;4.94;100.00
7333;BME280;3707;43.618;25.342;2023-12-29T04:01:23;100614.53;;;5.02;100.00
7333;BME280;3707;43.618;25.342;2023-12-29T04:03:50;100616.56;;;5.09;100.00
7333;BME280;3707;43.618;25.342;2023-12-29T04:06:18;100603.56;;;5.25;100.00
7333;BME280;3707;43.618;25.342;2023-12-29T04:08:45;100604.22;;;5.21;100.00
7333;BME280;3707;43.618;25.342;2023-12-29T04:11:12;100594.13;;;5.24;100.00
7333;BME280;3707;43.618;25.342;2023-12-29T04:13:39;100601.97;;;5.27;100.00
7333;BME280;3707;43.618;25.342;2023-12-29T04:16:06;100546.97;;;5.05;100.00
7333;BME280;3707;43.618;25.342;2023-12-29T04:18:32;100596.41;;;5.37;100.00
7333;BME280;3707;43.618;25.342;2023-12-29T04:20:59;100574.56;;;5.28;100.00
7333;BME280;3707;43.618;25.342;2023-12-29T04:23:27;100594.22;;;5.46;100.00
7333;BME280;3707;43.618;25.342;2023-12-29T04:25:54;100603.56;;;5.44;100.00
7333;BME280;3707;43.618;25.342;2023-12-29T04:28:21;100592.59;;;5.48;100.00
7333;BME280;3707;43.618;25.342;2023-12-29T04:30:48;100591.09;;;5.54;100.00
7333;BME280;3707;43.618;25.342;2023-12-29T04:33:14;100588.59;;;5.55;100.00
7333;BME280;3707;43.618;25.342;2023-12-29T04:35:41;100578.41;;;5.37;100.00
7333;BME280;3707;43.618;25.342;2023-12-29T04:38:08;100578.53;;;5.40;100.00
7333;BME280;3707;43.618;25.342;2023-12-29T04:40:37;100600.56;;;5.55;100.00
7333;BME280;3707;43.618;25.342;2023-12-29T04:43:04;100593.97;;;5.40;100.00
7333;BME280;3707;43.618;25.342;2023-12-29T04:45:30;100606.69;;;5.37;100.00
7333;BME280;3707;43.618;25.342;2023-12-29T04:47:57;100607.22;;;5.30;100.00
7333;BME280;3707;43.618;25.342;2023-12-29T04:50:24;100611.94;;;5.21;100.00
7333;BME280;3707;43.618;25.342;2023-12-29T04:52:51;100564.72;;;4.81;100.00
7333;BME280;3707;43.618;25.342;2023-12-29T04:55:17;100581.97;;;4.83;100.00
7333;BME280;3707;43.618;25.342;2023-12-29T04:57:45;100613.69;;;5.03;100.00
7333;BME280;3707;43.618;25.342;2023-12-29T05:00:13;100585.94;;;4.77;100.00
7333;BME280;3707;43.618;25.342;2023-12-29T05:02:40;100618.59;;;4.79;100.00
7333;BME280;3707;43.618;25.342;2023-12-29T05:05:07;100614.34;;;4.80;100.00
7333;BME280;3707;43.618;25.342;2023-12-29T05:07:34;100591.16;;;4.61;100.00
7333;BME280;3707;43.618;25.342;2023-12-29T05:10:01;100614.59;;;4.67;100.00
7333;BME280;3707;43.618;25.342;2023-12-29T05:12:28;100569.84;;;4.44;100.00
7333;BME280;3707;43.618;25.342;2023-12-29T05:14:57;100616.78;;;4.77;100.00
7333;BME280;3707;43.618;25.342;2023-12-29T05:17:23;100585.09;;;4.59;100.00
7333;BME280;3707;43.618;25.342;2023-12-29T05:19:50;100611.53;;;4.75;100.00
7333;BME280;3707;43.618;25.342;2023-12-29T05:22:17;100611.69;;;4.78;100.00
7333;BME280;3707;43.618;25.342;2023-12-29T05:24:43;100611.34;;;4.71;100.00
7333;BME280;3707;43.618;25.342;2023-12-29T05:27:11;100598.78;;;4.77;100.00
7333;BME280;3707;43.618;25.342;2023-12-29T05:29:37;100612.34;;;4.92;100.00
7333;BME280;3707;43.618;25.342;2023-12-29T05:32:06;100609.50;;;5.05;100.00
7333;BME280;3707;43.618;25.342;2023-12-29T05:34:33;100605.25;;;5.06;100.00
7333;BME280;3707;43.618;25.342;2023-12-29T05:37:00;100593.78;;;5.17;100.00
7333;BME280;3707;43.618;25.342;2023-12-29T05:39:27;100599.66;;;5.33;100.00
7333;BME280;3707;43.618;25.342;2023-12-29T05:41:54;100504.97;;;4.85;100.00
7333;BME280;3707;43.618;25.342;2023-12-29T05:44:21;100593.50;;;5.49;100.00
7333;BME280;3707;43.618;25.342;2023-12-29T05:46:48;100595.34;;;5.53;100.00
7333;BME280;3707;43.618;25.342;2023-12-29T05:49:16;100576.41;;;5.51;100.00
7333;BME280;3707;43.618;25.342;2023-12-29T05:51:44;100585.41;;;5.61;100.00
7333;BME280;3707;43.618;25.342;2023-12-29T05:54:10;100598.34;;;6.02;100.00
7333;BME280;3707;43.618;25.342;2023-12-29T05:56:37;100607.06;;;6.26;100.00
7333;BME280;3707;43.618;25.342;2023-12-29T05:59:04;100595.81;;;6.45;100.00
7333;BME280;3707;43.618;25.342;2023-12-29T06:01:31;100581.59;;;6.55;100.00
7333;BME280;3707;43.618;25.342;2023-12-29T06:03:58;100606.66;;;6.59;100.00
7333;BME280;3707;43.618;25.342;2023-12-29T06:06:26;100605.97;;;6.63;100.00
7333;BME280;3707;43.618;25.342;2023-12-29T06:08:54;100611.84;;;6.60;100.00
7333;BME280;3707;43.618;25.342;2023-12-29T06:11:20;100611.72;;;6.57;100.00
7333;BME280;3707;43.618;25.342;2023-12-29T06:13:47;100615.31;;;6.61;100.00
7333;BME280;3707;43.618;25.342;2023-12-29T06:16:18;100618.16;;;6.67;100.00
7333;BME280;3707;43.618;25.342;2023-12-29T06:18:45;100619.56;;;6.60;100.00
7333;BME280;3707;43.618;25.342;2023-12-29T06:21:12;100597.03;;;6.55;100.00
7333;BME280;3707;43.618;25.342;2023-12-29T06:23:41;100613.41;;;6.77;100.00
7333;BME280;3707;43.618;25.342;2023-12-29T06:26:14;100578.31;;;6.59;100.00
7333;BME280;3707;43.618;25.342;2023-12-29T06:28:41;100588.63;;;6.59;100.00
7333;BME280;3707;43.618;25.342;2023-12-29T06:31:08;100615.03;;;6.97;100.00
7333;BME280;3707;43.618;25.342;2023-12-29T06:33:35;100616.13;;;7.04;100.00
7333;BME280;3707;43.618;25.342;2023-12-29T06:36:02;100618.13;;;7.11;100.00
7333;BME280;3707;43.618;25.342;2023-12-29T06:38:29;100624.94;;;7.09;100.00
7333;BME280;3707;43.618;25.342;2023-12-29T06:40:57;100618.06;;;7.56;100.00
7333;BME280;3707;43.618;25.342;2023-12-29T06:43:24;100629.94;;;7.28;100.00
7333;BME280;3707;43.618;25.342;2023-12-29T06:45:51;100606.63;;;7.03;100.00
7333;BME280;3707;43.618;25.342;2023-12-29T06:48:18;100646.84;;;7.20;100.00
7333;BME280;3707;43.618;25.342;2023-12-29T06:50:45;100649.22;;;7.38;100.00
7333;BME280;3707;43.618;25.342;2023-12-29T06:53:12;100654.91;;;7.29;100.00
7333;BME280;3707;43.618;25.342;2023-12-29T06:55:39;100630.44;;;7.42;100.00
7333;BME280;3707;43.618;25.342;2023-12-29T06:58:07;100632.06;;;7.16;100.00
7333;BME280;3707;43.618;25.342;2023-12-29T07:00:34;100657.59;;;7.10;100.00
7333;BME280;3707;43.618;25.342;2023-12-29T07:03:01;100635.28;;;6.88;100.00
7333;BME280;3707;43.618;25.342;2023-12-29T07:05:27;100636.66;;;6.79;100.00
7333;BME280;3707;43.618;25.342;2023-12-29T07:07:54;100652.56;;;6.69;100.00
7333;BME280;3707;43.618;25.342;2023-12-29T07:10:21;100650.34;;;6.56;100.00
7333;BME280;3707;43.618;25.342;2023-12-29T07:12:48;100663.78;;;6.48;100.00
7333;BME280;3707;43.618;25.342;2023-12-29T07:15:17;100644.91;;;6.49;100.00
7333;BME280;3707;43.618;25.342;2023-12-29T07:17:44;100649.13;;;6.47;100.00
7333;BME280;3707;43.618;25.342;2023-12-29T07:20:11;100633.22;;;6.58;100.00
7333;BME280;3707;43.618;25.342;2023-12-29T07:22:38;100603.47;;;6.43;100.00
7333;BME280;3707;43.618;25.342;2023-12-29T07:25:05;100652.06;;;6.77;100.00
7333;BME280;3707;43.618;25.342;2023-12-29T07:27:32;100628.31;;;6.64;100.00
7333;BME280;3707;43.618;25.342;2023-12-29T07:29:59;100632.50;;;7.28;100.00
7333;BME280;3707;43.618;25.342;2023-12-29T07:32:27;100657.75;;;7.13;100.00
7333;BME280;3707;43.618;25.342;2023-12-29T07:34:54;100659.63;;;6.95;100.00
7333;BME280;3707;43.618;25.342;2023-12-29T07:37:21;100666.75;;;6.80;100.00
7333;BME280;3707;43.618;25.342;2023-12-29T07:39:48;100651.63;;;6.46;100.00
7333;BME280;3707;43.618;25.342;2023-12-29T07:42:15;100653.09;;;6.39;100.00
7333;BME280;3707;43.618;25.342;2023-12-29T07:44:42;100645.94;;;6.32;100.00
7333;BME280;3707;43.618;25.342;2023-12-29T07:47:09;100651.72;;;6.47;100.00
7333;BME280;3707;43.618;25.342;2023-12-29T07:49:38;100652.06;;;6.57;100.00
7333;BME280;3707;43.618;25.342;2023-12-29T07:52:07;100652.69;;;6.72;100.00
7333;BME280;3707;43.618;25.342;2023-12-29T07:54:34;100661.41;;;6.75;100.00
7333;BME280;3707;43.618;25.342;2023-12-29T07:57:01;100668.94;;;6.91;100.00
7333;BME280;3707;43.618;25.342;2023-12-29T07:59:28;100668.69;;;7.08;100.00
7333;BME280;3707;43.618;25.342;2023-12-29T08:01:55;100682.94;;;7.20;100.00
7333;BME280;3707;43.618;25.342;2023-12-29T08:04:23;100683.09;;;7.25;100.00
7333;BME280;3707;43.618;25.342;2023-12-29T08:06:51;100666.91;;;7.29;100.00
7333;BME280;3707;43.618;25.342;2023-12-29T08:09:18;100670.56;;;7.12;100.00
7333;BME280;3707;43.618;25.342;2023-12-29T08:11:45;100674.22;;;7.17;100.00
7333;BME280;3707;43.618;25.342;2023-12-29T08:14:12;100677.84;;;7.22;100.00
7333;BME280;3707;43.618;25.342;2023-12-29T08:16:38;100681.88;;;7.37;100.00
7333;BME280;3707;43.618;25.342;2023-12-29T08:19:06;100670.97;;;7.44;100.00
7333;BME280;3707;43.618;25.342;2023-12-29T08:21:34;100668.66;;;7.52;100.00
7333;BME280;3707;43.618;25.342;2023-12-29T08:24:02;100661.34;;;7.64;100.00
7333;BME280;3707;43.618;25.342;2023-12-29T08:26:29;100692.53;;;7.94;100.00
7333;BME280;3707;43.618;25.342;2023-12-29T08:28:56;100688.84;;;8.11;100.00
7333;BME280;3707;43.618;25.342;2023-12-29T08:31:23;100675.63;;;8.27;100.00
7333;BME280;3707;43.618;25.342;2023-12-29T08:33:51;100625.31;;;8.16;100.00
7333;BME280;3707;43.618;25.342;2023-12-29T08:36:20;100700.69;;;8.80;100.00
7333;BME280;3707;43.618;25.342;2023-12-29T08:38:47;100696.25;;;8.78;100.00
7333;BME280;3707;43.618;25.342;2023-12-29T08:41:15;100713.34;;;9.00;100.00
7333;BME280;3707;43.618;25.342;2023-12-29T08:43:43;100705.81;;;9.07;100.00
7333;BME280;3707;43.618;25.342;2023-12-29T08:46:10;100685.94;;;9.06;100.00
7333;BME280;3707;43.618;25.342;2023-12-29T08:48:37;100699.16;;;9.43;100.00
7333;BME280;3707;43.618;25.342;2023-12-29T08:51:04;100683.06;;;9.54;100.00
7333;BME280;3707;43.618;25.342;2023-12-29T08:53:31;100679.44;;;9.77;100.00
7333;BME280;3707;43.618;25.342;2023-12-29T08:56:01;100689.34;;;10.23;100.00
7333;BME280;3707;43.618;25.342;2023-12-29T08:58:29;100702.09;;;10.48;100.00
7333;BME280;3707;43.618;25.342;2023-12-29T09:00:56;100702.34;;;10.59;100.00
7333;BME280;3707;43.618;25.342;2023-12-29T09:03:23;100699.97;;;10.68;99.55
7333;BME280;3707;43.618;25.342;2023-12-29T09:05:50;100657.00;;;10.43;98.55
7333;BME280;3707;43.618;25.342;2023-12-29T09:08:16;100684.78;;;10.84;97.19
7333;BME280;3707;43.618;25.342;2023-12-29T09:10:43;100698.66;;;11.22;94.64
7333;BME280;3707;43.618;25.342;2023-12-29T09:13:10;100691.06;;;11.31;93.36
7333;BME280;3707;43.618;25.342;2023-12-29T09:15:38;100706.38;;;11.58;91.51
7333;BME280;3707;43.618;25.342;2023-12-29T09:18:05;100693.22;;;11.51;91.13
7333;BME280;3707;43.618;25.342;2023-12-29T09:20:32;100701.19;;;11.58;91.00
7333;BME280;3707;43.618;25.342;2023-12-29T09:22:59;100694.34;;;11.63;91.19
7333;BME280;3707;43.618;25.342;2023-12-29T09:25:26;100693.75;;;11.75;90.02
7333;BME280;3707;43.618;25.342;2023-12-29T09:27:53;100707.06;;;11.91;89.42
7333;BME280;3707;43.618;25.342;2023-12-29T09:30:20;100688.81;;;11.88;89.13
7333;BME280;3707;43.618;25.342;2023-12-29T09:32:48;100699.56;;;12.05;88.69
7333;BME280;3707;43.618;25.342;2023-12-29T09:35:14;100677.00;;;12.04;87.83
7333;BME280;3707;43.618;25.342;2023-12-29T09:37:42;100698.88;;;12.15;87.47
7333;BME280;3707;43.618;25.342;2023-12-29T09:40:10;100695.47;;;12.19;87.81
7333;BME280;3707;43.618;25.342;2023-12-29T09:42:38;100675.69;;;12.27;86.94
7333;BME280;3707;43.618;25.342;2023-12-29T09:45:09;100627.72;;;12.10;85.98
7333;BME280;3707;43.618;25.342;2023-12-29T09:47:38;100652.41;;;12.35;84.84
7333;BME280;3707;43.618;25.342;2023-12-29T09:50:10;100675.25;;;12.51;84.21
7333;BME280;3707;43.618;25.342;2023-12-29T09:52:38;100681.47;;;12.61;83.55
7333;BME280;3707;43.618;25.342;2023-12-29T09:55:08;100678.09;;;12.66;83.26
7333;BME280;3707;43.618;25.342;2023-12-29T09:57:36;100675.63;;;12.75;82.34
7333;BME280;3707;43.618;25.342;2023-12-29T10:00:04;100676.47;;;12.73;82.13
7333;BME280;3707;43.618;25.342;2023-12-29T10:02:32;100671.38;;;12.82;81.86
7333;BME280;3707;43.618;25.342;2023-12-29T10:05:01;100669.78;;;12.90;81.57
7333;BME280;3707;43.618;25.342;2023-12-29T10:07:35;100658.66;;;13.00;80.97
7333;BME280;3707;43.618;25.342;2023-12-29T10:10:02;100651.88;;;13.10;80.61
7333;BME280;3707;43.618;25.342;2023-12-29T10:12:32;100647.63;;;13.15;79.36
7333;BME280;3707;43.618;25.342;2023-12-29T10:15:05;100641.66;;;13.23;78.84
7333;BME280;3707;43.618;25.342;2023-12-29T10:17:43;100640.03;;;13.33;77.87
7333;BME280;3707;43.618;25.342;2023-12-29T10:20:25;100576.50;;;13.20;77.32
7333;BME280;3707;43.618;25.342;2023-12-29T10:23:05;100616.75;;;13.47;77.31
7333;BME280;3707;43.618;25.342;2023-12-29T10:25:34;100614.16;;;13.47;76.66
7333;BME280;3707;43.618;25.342;2023-12-29T10:28:01;100619.56;;;13.62;75.38
7333;BME280;3707;43.618;25.342;2023-12-29T10:30:28;100609.09;;;13.59;75.26
7333;BME280;3707;43.618;25.342;2023-12-29T10:32:57;100613.53;;;13.66;75.07
7333;BME280;3707;43.618;25.342;2023-12-29T10:35:26;100613.72;;;13.85;74.08
7333;BME280;3707;43.618;25.342;2023-12-29T10:37:52;100608.41;;;13.78;74.06
7333;BME280;3707;43.618;25.342;2023-12-29T10:40:21;100626.00;;;13.97;73.92
7333;BME280;3707;43.618;25.342;2023-12-29T10:42:52;100605.19;;;14.00;72.44
7333;BME280;3707;43.618;25.342;2023-12-29T10:45:19;100597.38;;;14.02;72.25
7333;BME280;3707;43.618;25.342;2023-12-29T10:47:45;100602.66;;;14.08;71.56
7333;BME280;3707;43.618;25.342;2023-12-29T10:50:12;100562.53;;;13.95;70.99
7333;BME280;3707;43.618;25.342;2023-12-29T10:52:39;100593.19;;;14.23;71.16
7333;BME280;3707;43.618;25.342;2023-12-29T10:55:09;100589.72;;;14.21;71.49
7333;BME280;3707;43.618;25.342;2023-12-29T10:57:38;100589.81;;;14.32;70.83
7333;BME280;3707;43.618;25.342;2023-12-29T11:00:06;100582.06;;;14.36;70.58
7333;BME280;3707;43.618;25.342;2023-12-29T11:02:34;100564.50;;;14.22;70.55
7333;BME280;3707;43.618;25.342;2023-12-29T11:05:02;100549.72;;;14.19;70.37
7333;BME280;3707;43.618;25.342;2023-12-29T11:07:37;100569.06;;;14.46;69.96
7333;BME280;3707;43.618;25.342;2023-12-29T11:10:05;100557.66;;;14.33;70.28
7333;BME280;3707;43.618;25.342;2023-12-29T11:12:34;100543.81;;;14.40;69.83
7333;BME280;3707;43.618;25.342;2023-12-29T11:15:04;100574.38;;;14.58;71.30
7333;BME280;3707;43.618;25.342;2023-12-29T11:17:34;100560.63;;;14.83;73.48
7333;BME280;3707;43.618;25.342;2023-12-29T11:20:03;100415.56;;;13.81;70.75
7333;BME280;3707;43.618;25.342;2023-12-29T11:22:31;100557.06;;;14.73;70.26
7333;BME280;3707;43.618;25.342;2023-12-29T11:24:59;100539.66;;;14.74;69.32
7333;BME280;3707;43.618;25.342;2023-12-29T11:27:27;100519.56;;;14.58;69.99
7333;BME280;3707;43.618;25.342;2023-12-29T11:29:55;100555.38;;;14.84;69.57
7333;BME280;3707;43.618;25.342;2023-12-29T11:32:30;100521.38;;;14.69;69.25
7333;BME280;3707;43.618;25.342;2023-12-29T11:35:12;100554.50;;;14.81;68.93
7333;BME280;3707;43.618;25.342;2023-12-29T11:38:19;100540.63;;;14.93;68.72
7333;BME280;3707;43.618;25.342;2023-12-29T11:40:57;100524.06;;;14.86;69.35
7333;BME280;3707;43.618;25.342;2023-12-29T11:43:26;100517.97;;;14.82;68.30
7333;BME280;3707;43.618;25.342;2023-12-29T11:45:53;100490.06;;;14.77;68.21
7333;BME280;3707;43.618;25.342;2023-12-29T11:48:54;100515.47;;;15.05;68.01
7333;BME280;3707;43.618;25.342;2023-12-29T11:51:28;100510.25;;;15.11;67.95
7333;BME280;3707;43.618;25.342;2023-12-29T11:53:55;100522.41;;;15.03;67.95
7333;BME280;3707;43.618;25.342;2023-12-29T11:56:22;100532.00;;;15.01;67.11
7333;BME280;3707;43.618;25.342;2023-12-29T11:58:48;100532.88;;;15.09;66.29
7333;BME280;3707;43.618;25.342;2023-12-29T12:01:33;100537.25;;;15.15;64.79
7333;BME280;3707;43.618;25.342;2023-12-29T12:04:01;100539.88;;;15.15;65.41
7333;BME280;3707;43.618;25.342;2023-12-29T12:06:36;100506.75;;;15.06;65.75
7333;BME280;3707;43.618;25.342;2023-12-29T12:09:16;100528.56;;;15.19;65.24
7333;BME280;3707;43.618;25.342;2023-12-29T12:11:44;100525.06;;;15.15;64.98
7333;BME280;3707;43.618;25.342;2023-12-29T12:14:44;100522.47;;;15.21;64.76
7333;BME280;3707;43.618;25.342;2023-12-29T12:17:10;100525.94;;;15.23;64.20
7333;BME280;3707;43.618;25.342;2023-12-29T12:19:39;100521.63;;;15.34;63.83
7333;BME280;3707;43.618;25.342;2023-12-29T12:22:06;100502.47;;;15.25;63.83
7333;BME280;3707;43.618;25.342;2023-12-29T12:24:35;100506.00;;;15.41;63.96
7333;BME280;3707;43.618;25.342;2023-12-29T12:27:03;100493.78;;;15.35;63.27
7333;BME280;3707;43.618;25.342;2023-12-29T12:29:30;100492.03;;;15.29;63.23
7333;BME280;3707;43.618;25.342;2023-12-29T12:31:57;100506.91;;;15.50;63.41
7333;BME280;3707;43.618;25.342;2023-12-29T12:34:25;100489.41;;;15.35;63.89
7333;BME280;3707;43.618;25.342;2023-12-29T12:36:55;100520.00;;;15.62;63.80
7333;BME280;3707;43.618;25.342;2023-12-29T12:39:25;100516.44;;;15.45;64.46
7333;BME280;3707;43.618;25.342;2023-12-29T12:42:04;100501.63;;;15.39;64.52
7333;BME280;3707;43.618;25.342;2023-12-29T12:44:31;100494.66;;;15.35;64.86
7333;BME280;3707;43.618;25.342;2023-12-29T12:46:59;100510.31;;;15.45;65.71
7333;BME280;3707;43.618;25.342;2023-12-29T12:49:29;100506.84;;;15.36;65.94
7333;BME280;3707;43.618;25.342;2023-12-29T12:51:57;100508.59;;;15.48;65.66
7333;BME280;3707;43.618;25.342;2023-12-29T12:54:24;100504.25;;;15.46;64.38
7333;BME280;3707;43.618;25.342;2023-12-29T12:56:51;100501.69;;;15.52;65.54
7333;BME280;3707;43.618;25.342;2023-12-29T12:59:18;100505.13;;;15.48;64.54
7333;BME280;3707;43.618;25.342;2023-12-29T13:01:45;100504.28;;;15.49;64.23
7333;BME280;3707;43.618;25.342;2023-12-29T13:04:12;100513.00;;;15.54;64.40